sensor_id;sensor_type;location;lat;lon;timestamp;P1;durP1;ratioP1;P2;durP2;ratioP2
39750;SDS011;37579;51.074;17.004;2023-12-28T00:01:25;8.80;;;5.32;;
39750;SDS011;37579;51.074;17.004;2023-12-28T00:03:51;8.10;;;5.38;;
39750;SDS011;37579;51.074;17.004;2023-12-28T00:06:17;9.15;;;5.57;;
39750;SDS011;37579;51.074;17.004;2023-12-28T00:08:43;7.82;;;4.90;;
39750;SDS011;37579;51.074;17.004;2023-12-28T00:11:08;10.35;;;6.00;;
39750;SDS011;37579;51.074;17.004;2023-12-28T00:13:34;9.00;;;5.18;;
39750;SDS011;37579;51.074;17.004;2023-12-28T00:16:00;7.80;;;5.15;;
39750;SDS011;37579;51.074;17.004;2023-12-28T00:18:26;8.65;;;4.82;;
39750;SDS011;37579;51.074;17.004;2023-12-28T00:20:52;8.93;;;5.25;;
39750;SDS011;37579;51.074;17.004;2023-12-28T00:23:18;9.18;;;5.03;;
39750;SDS011;37579;51.074;17.004;2023-12-28T00:25:45;8.75;;;5.45;;
39750;SDS011;37579;51.074;17.004;2023-12-28T00:28:11;8.05;;;5.28;;
39750;SDS011;37579;51.074;17.004;2023-12-28T00:30:37;9.40;;;5.20;;
39750;SDS011;37579;51.074;17.004;2023-12-28T00:33:03;10.15;;;4.97;;
39750;SDS011;37579;51.074;17.004;2023-12-28T00:35:29;7.85;;;4.90;;
39750;SDS011;37579;51.074;17.004;2023-12-28T00:37:55;9.13;;;5.38;;
39750;SDS011;37579;51.074;17.004;2023-12-28T00:40:21;8.85;;;5.13;;
39750;SDS011;37579;51.074;17.004;2023-12-28T00:42:48;10.05;;;5.65;;
39750;SDS011;37579;51.074;17.004;2023-12-28T00:45:14;10.63;;;5.60;;
39750;SDS011;37579;51.074;17.004;2023-12-28T00:47:40;9.07;;;5.35;;
39750;SDS011;37579;51.074;17.004;2023-12-28T00:50:08;8.70;;;5.07;;
39750;SDS011;37579;51.074;17.004;2023-12-28T00:52:37;6.85;;;4.70;;
39750;SDS011;37579;51.074;17.004;2023-12-28T00:55:03;8.82;;;5.30;;
39750;SDS011;37579;51.074;17.004;2023-12-28T00:57:30;9.10;;;5.18;;
39750;SDS011;37579;51.074;17.004;2023-12-28T00:59:55;10.07;;;5.00;;
39750;SDS011;37579;51.074;17.004;2023-12-28T01:02:21;7.32;;;4.93;;
39750;SDS011;37579;51.074;17.004;2023-12-28T01:04:47;10.15;;;5.22;;
39750;SDS011;37579;51.074;17.004;2023-12-28T01:07:13;8.10;;;5.25;;
39750;SDS011;37579;51.074;17.004;2023-12-28T01:09:38;9.70;;;4.90;;
39750;SDS011;37579;51.074;17.004;2023-12-28T01:12:04;8.77;;;4.88;;
39750;SDS011;37579;51.074;17.004;2023-12-28T01:14:31;8.90;;;5.57;;
39750;SDS011;37579;51.074;17.004;2023-12-28T01:16:57;8.77;;;5.50;;
39750;SDS011;37579;51.074;17.004;2023-12-28T01:19:23;8.25;;;4.65;;
39750;SDS011;37579;51.074;17.004;2023-12-28T01:21:49;7.95;;;4.95;;
39750;SDS011;37579;51.074;17.004;2023-12-28T01:24:15;9.32;;;5.13;;
39750;SDS011;37579;51.074;17.004;2023-12-28T01:26:41;8.10;;;5.03;;
39750;SDS011;37579;51.074;17.004;2023-12-28T01:29:07;8.52;;;5.43;;
39750;SDS011;37579;51.074;17.004;2023-12-28T01:31:33;9.82;;;5.30;;
39750;SDS011;37579;51.074;17.004;2023-12-28T01:33:59;9.85;;;5.45;;
39750;SDS011;37579;51.074;17.004;2023-12-28T01:36:25;8.07;;;5.30;;
39750;SDS011;37579;51.074;17.004;2023-12-28T01:38:52;7.97;;;5.32;;
39750;SDS011;37579;51.074;17.004;2023-12-28T01:41:18;8.27;;;5.13;;
39750;SDS011;37579;51.074;17.004;2023-12-28T01:43:43;7.05;;;5.00;;
39750;SDS011;37579;51.074;17.004;2023-12-28T01:46:14;7.25;;;5.05;;
39750;SDS011;37579;51.074;17.004;2023-12-28T01:48:43;8.38;;;5.07;;
39750;SDS011;37579;51.074;17.004;2023-12-28T01:51:12;7.53;;;5.22;;
39750;SDS011;37579;51.074;17.004;2023-12-28T01:53:38;7.57;;;5.22;;
39750;SDS011;37579;51.074;17.004;2023-12-28T01:56:04;9.23;;;4.85;;
39750;SDS011;37579;51.074;17.004;2023-12-28T01:58:32;8.63;;;5.20;;
39750;SDS011;37579;51.074;17.004;2023-12-28T02:00:59;9.38;;;5.38;;
39750;SDS011;37579;51.074;17.004;2023-12-28T02:03:26;7.97;;;4.80;;
39750;SDS011;37579;51.074;17.004;2023-12-28T02:05:53;7.85;;;5.10;;
39750;SDS011;37579;51.074;17.004;2023-12-28T02:08:19;8.70;;;5.25;;
39750;SDS011;37579;51.074;17.004;2023-12-28T02:10:45;9.23;;;5.05;;
39750;SDS011;37579;51.074;17.004;2023-12-28T02:13:12;7.70;;;4.80;;
39750;SDS011;37579;51.074;17.004;2023-12-28T02:15:38;8.90;;;5.20;;
39750;SDS011;37579;51.074;17.004;2023-12-28T02:18:11;9.32;;;4.80;;
39750;SDS011;37579;51.074;17.004;2023-12-28T02:20:39;7.25;;;4.95;;
39750;SDS011;37579;51.074;17.004;2023-12-28T02:23:05;8.05;;;4.60;;
39750;SDS011;37579;51.074;17.004;2023-12-28T02:25:31;7.53;;;5.13;;
39750;SDS011;37579;51.074;17.004;2023-12-28T02:27:57;9.20;;;5.03;;
39750;SDS011;37579;51.074;17.004;2023-12-28T02:30:24;7.75;;;5.05;;
39750;SDS011;37579;51.074;17.004;2023-12-28T02:38:23;7.18;;;4.93;;
39750;SDS011;37579;51.074;17.004;2023-12-28T02:40:50;8.18;;;4.88;;
39750;SDS011;37579;51.074;17.004;2023-12-28T02:43:17;7.95;;;4.95;;
39750;SDS011;37579;51.074;17.004;2023-12-28T02:45:43;8.75;;;4.93;;
39750;SDS011;37579;51.074;17.004;2023-12-28T02:48:08;10.48;;;5.35;;
39750;SDS011;37579;51.074;17.004;2023-12-28T02:50:34;8.70;;;5.07;;
39750;SDS011;37579;51.074;17.004;2023-12-28T02:53:01;9.20;;;5.28;;
39750;SDS011;37579;51.074;17.004;2023-12-28T02:55:27;8.55;;;5.63;;
39750;SDS011;37579;51.074;17.004;2023-12-28T02:57:53;7.78;;;4.93;;
39750;SDS011;37579;51.074;17.004;2023-12-28T03:00:20;8.25;;;4.88;;
39750;SDS011;37579;51.074;17.004;2023-12-28T03:02:47;7.65;;;4.80;;
39750;SDS011;37579;51.074;17.004;2023-12-28T03:05:13;7.57;;;4.60;;
39750;SDS011;37579;51.074;17.004;2023-12-28T03:07:39;7.13;;;4.57;;
39750;SDS011;37579;51.074;17.004;2023-12-28T03:10:06;7.97;;;5.00;;
39750;SDS011;37579;51.074;17.004;2023-12-28T03:12:32;8.45;;;4.97;;
39750;SDS011;37579;51.074;17.004;2023-12-28T03:14:58;8.00;;;4.93;;
39750;SDS011;37579;51.074;17.004;2023-12-28T03:17:24;8.75;;;5.20;;
39750;SDS011;37579;51.074;17.004;2023-12-28T03:19:49;7.88;;;4.97;;
39750;SDS011;37579;51.074;17.004;2023-12-28T03:22:16;8.77;;;5.18;;
39750;SDS011;37579;51.074;17.004;2023-12-28T03:24:42;6.15;;;4.65;;
39750;SDS011;37579;51.074;17.004;2023-12-28T03:27:08;6.63;;;4.82;;
39750;SDS011;37579;51.074;17.004;2023-12-28T03:29:34;8.63;;;4.97;;
39750;SDS011;37579;51.074;17.004;2023-12-28T03:32:00;8.75;;;4.95;;
39750;SDS011;37579;51.074;17.004;2023-12-28T03:34:26;7.32;;;4.82;;
39750;SDS011;37579;51.074;17.004;2023-12-28T03:36:54;9.45;;;5.13;;
39750;SDS011;37579;51.074;17.004;2023-12-28T03:39:20;8.20;;;5.30;;
39750;SDS011;37579;51.074;17.004;2023-12-28T03:41:47;8.00;;;5.13;;
39750;SDS011;37579;51.074;17.004;2023-12-28T03:44:12;9.13;;;5.05;;
39750;SDS011;37579;51.074;17.004;2023-12-28T03:46:38;7.22;;;4.57;;
39750;SDS011;37579;51.074;17.004;2023-12-28T03:49:04;7.72;;;4.95;;
39750;SDS011;37579;51.074;17.004;2023-12-28T03:51:30;7.30;;;4.53;;
39750;SDS011;37579;51.074;17.004;2023-12-28T03:53:56;8.75;;;4.57;;
39750;SDS011;37579;51.074;17.004;2023-12-28T03:56:22;8.25;;;4.75;;
39750;SDS011;37579;51.074;17.004;2023-12-28T03:58:52;6.95;;;4.78;;
39750;SDS011;37579;51.074;17.004;2023-12-28T04:01:21;8.38;;;5.00;;
39750;SDS011;37579;51.074;17.004;2023-12-28T04:03:49;9.32;;;5.10;;
39750;SDS011;37579;51.074;17.004;2023-12-28T04:06:14;8.10;;;5.05;;
39750;SDS011;37579;51.074;17.004;2023-12-28T04:08:41;8.43;;;4.82;;
39750;SDS011;37579;51.074;17.004;2023-12-28T04:11:08;7.32;;;4.80;;
39750;SDS011;37579;51.074;17.004;2023-12-28T04:13:34;7.80;;;4.25;;
39750;SDS011;37579;51.074;17.004;2023-12-28T04:16:00;8.30;;;4.75;;
39750;SDS011;37579;51.074;17.004;2023-12-28T04:18:26;7.60;;;4.60;;
39750;SDS011;37579;51.074;17.004;2023-12-28T04:20:53;6.65;;;4.90;;
39750;SDS011;37579;51.074;17.004;2023-12-28T04:23:19;6.50;;;4.18;;
39750;SDS011;37579;51.074;17.004;2023-12-28T04:25:45;7.85;;;4.72;;
39750;SDS011;37579;51.074;17.004;2023-12-28T04:28:10;6.80;;;4.80;;
39750;SDS011;37579;51.074;17.004;2023-12-28T04:30:36;6.80;;;4.70;;
39750;SDS011;37579;51.074;17.004;2023-12-28T04:33:02;7.45;;;4.95;;
39750;SDS011;37579;51.074;17.004;2023-12-28T04:35:29;6.00;;;4.38;;
39750;SDS011;37579;51.074;17.004;2023-12-28T04:37:56;7.95;;;4.70;;
39750;SDS011;37579;51.074;17.004;2023-12-28T04:40:21;7.38;;;4.75;;
39750;SDS011;37579;51.074;17.004;2023-12-28T04:42:47;5.90;;;3.92;;
39750;SDS011;37579;51.074;17.004;2023-12-28T04:45:13;7.53;;;4.07;;
39750;SDS011;37579;51.074;17.004;2023-12-28T04:47:39;6.60;;;4.40;;
39750;SDS011;37579;51.074;17.004;2023-12-28T04:50:05;6.65;;;4.40;;
39750;SDS011;37579;51.074;17.004;2023-12-28T04:52:32;6.93;;;3.90;;
39750;SDS011;37579;51.074;17.004;2023-12-28T04:54:58;7.45;;;4.22;;
39750;SDS011;37579;51.074;17.004;2023-12-28T04:57:24;7.07;;;4.28;;
39750;SDS011;37579;51.074;17.004;2023-12-28T04:59:50;5.93;;;3.95;;
39750;SDS011;37579;51.074;17.004;2023-12-28T05:02:17;6.78;;;4.22;;
39750;SDS011;37579;51.074;17.004;2023-12-28T05:04:43;5.65;;;3.78;;
39750;SDS011;37579;51.074;17.004;2023-12-28T05:07:09;6.57;;;3.92;;
39750;SDS011;37579;51.074;17.004;2023-12-28T05:09:35;7.30;;;4.30;;
39750;SDS011;37579;51.074;17.004;2023-12-28T05:12:01;5.90;;;4.07;;
39750;SDS011;37579;51.074;17.004;2023-12-28T05:14:27;6.15;;;4.15;;
39750;SDS011;37579;51.074;17.004;2023-12-28T05:16:53;5.60;;;3.95;;
39750;SDS011;37579;51.074;17.004;2023-12-28T05:19:19;6.85;;;3.92;;
39750;SDS011;37579;51.074;17.004;2023-12-28T05:21:45;6.22;;;3.78;;
39750;SDS011;37579;51.074;17.004;2023-12-28T05:24:11;5.20;;;3.80;;
39750;SDS011;37579;51.074;17.004;2023-12-28T05:26:37;6.05;;;3.97;;
39750;SDS011;37579;51.074;17.004;2023-12-28T05:29:03;6.22;;;4.13;;
39750;SDS011;37579;51.074;17.004;2023-12-28T05:31:28;6.57;;;3.92;;
39750;SDS011;37579;51.074;17.004;2023-12-28T05:33:54;6.20;;;3.85;;
39750;SDS011;37579;51.074;17.004;2023-12-28T05:36:20;5.75;;;3.65;;
39750;SDS011;37579;51.074;17.004;2023-12-28T05:38:46;6.25;;;3.55;;
39750;SDS011;37579;51.074;17.004;2023-12-28T05:41:11;6.00;;;4.00;;
39750;SDS011;37579;51.074;17.004;2023-12-28T05:43:37;6.60;;;4.10;;
39750;SDS011;37579;51.074;17.004;2023-12-28T05:46:03;6.72;;;3.33;;
39750;SDS011;37579;51.074;17.004;2023-12-28T05:48:30;5.90;;;3.95;;
39750;SDS011;37579;51.074;17.004;2023-12-28T05:50:59;5.82;;;3.40;;
39750;SDS011;37579;51.074;17.004;2023-12-28T05:53:25;5.60;;;3.40;;
39750;SDS011;37579;51.074;17.004;2023-12-28T05:55:52;5.65;;;3.55;;
39750;SDS011;37579;51.074;17.004;2023-12-28T05:58:18;5.90;;;3.72;;
39750;SDS011;37579;51.074;17.004;2023-12-28T06:00:44;5.70;;;3.55;;
39750;SDS011;37579;51.074;17.004;2023-12-28T06:03:13;5.90;;;3.80;;
39750;SDS011;37579;51.074;17.004;2023-12-28T06:05:39;4.82;;;3.60;;
39750;SDS011;37579;51.074;17.004;2023-12-28T06:08:05;5.38;;;3.53;;
39750;SDS011;37579;51.074;17.004;2023-12-28T06:10:31;7.78;;;3.20;;
39750;SDS011;37579;51.074;17.004;2023-12-28T06:12:56;4.68;;;3.17;;
39750;SDS011;37579;51.074;17.004;2023-12-28T06:15:23;5.13;;;3.78;;
39750;SDS011;37579;51.074;17.004;2023-12-28T06:17:49;5.82;;;3.17;;
39750;SDS011;37579;51.074;17.004;2023-12-28T06:20:14;4.45;;;3.35;;
39750;SDS011;37579;51.074;17.004;2023-12-28T06:22:40;5.40;;;3.60;;
39750;SDS011;37579;51.074;17.004;2023-12-28T06:25:06;5.38;;;3.50;;
39750;SDS011;37579;51.074;17.004;2023-12-28T06:27:32;5.22;;;3.45;;
39750;SDS011;37579;51.074;17.004;2023-12-28T06:29:58;5.25;;;3.40;;
39750;SDS011;37579;51.074;17.004;2023-12-28T06:32:23;4.95;;;3.03;;
39750;SDS011;37579;51.074;17.004;2023-12-28T06:34:49;4.47;;;3.03;;
39750;SDS011;37579;51.074;17.004;2023-12-28T06:37:15;5.53;;;3.47;;
39750;SDS011;37579;51.074;17.004;2023-12-28T06:39:41;5.07;;;3.47;;
39750;SDS011;37579;51.074;17.004;2023-12-28T06:42:06;4.00;;;3.13;;
39750;SDS011;37579;51.074;17.004;2023-12-28T06:44:32;4.95;;;3.15;;
39750;SDS011;37579;51.074;17.004;2023-12-28T06:46:58;4.60;;;3.17;;
39750;SDS011;37579;51.074;17.004;2023-12-28T06:49:24;4.57;;;2.80;;
39750;SDS011;37579;51.074;17.004;2023-12-28T06:51:50;4.60;;;3.00;;
39750;SDS011;37579;51.074;17.004;2023-12-28T06:54:16;4.22;;;3.15;;
39750;SDS011;37579;51.074;17.004;2023-12-28T06:56:43;9.23;;;3.20;;
39750;SDS011;37579;51.074;17.004;2023-12-28T06:59:09;3.90;;;2.60;;
39750;SDS011;37579;51.074;17.004;2023-12-28T07:01:37;5.03;;;3.10;;
39750;SDS011;37579;51.074;17.004;2023-12-28T07:04:04;4.07;;;2.90;;
39750;SDS011;37579;51.074;17.004;2023-12-28T07:06:30;4.43;;;3.05;;
39750;SDS011;37579;51.074;17.004;2023-12-28T07:08:55;3.47;;;2.75;;
39750;SDS011;37579;51.074;17.004;2023-12-28T07:11:21;4.15;;;3.13;;
39750;SDS011;37579;51.074;17.004;2023-12-28T07:13:47;4.22;;;2.88;;
39750;SDS011;37579;51.074;17.004;2023-12-28T07:16:13;3.70;;;2.60;;
39750;SDS011;37579;51.074;17.004;2023-12-28T07:18:39;3.83;;;2.53;;
39750;SDS011;37579;51.074;17.004;2023-12-28T07:21:05;4.13;;;2.78;;
39750;SDS011;37579;51.074;17.004;2023-12-28T07:23:34;3.75;;;2.58;;
39750;SDS011;37579;51.074;17.004;2023-12-28T07:26:00;4.38;;;3.00;;
39750;SDS011;37579;51.074;17.004;2023-12-28T07:28:26;3.63;;;2.63;;
39750;SDS011;37579;51.074;17.004;2023-12-28T07:30:53;3.67;;;2.42;;
39750;SDS011;37579;51.074;17.004;2023-12-28T07:33:19;3.83;;;2.70;;
39750;SDS011;37579;51.074;17.004;2023-12-28T07:35:45;4.55;;;2.83;;
39750;SDS011;37579;51.074;17.004;2023-12-28T07:38:11;3.38;;;2.50;;
39750;SDS011;37579;51.074;17.004;2023-12-28T07:40:37;4.22;;;2.47;;
39750;SDS011;37579;51.074;17.004;2023-12-28T07:43:02;4.68;;;2.53;;
39750;SDS011;37579;51.074;17.004;2023-12-28T07:45:28;3.85;;;2.50;;
39750;SDS011;37579;51.074;17.004;2023-12-28T07:47:54;3.53;;;2.40;;
39750;SDS011;37579;51.074;17.004;2023-12-28T07:50:20;5.07;;;2.40;;
39750;SDS011;37579;51.074;17.004;2023-12-28T07:52:46;3.65;;;2.45;;
39750;SDS011;37579;51.074;17.004;2023-12-28T07:55:12;4.15;;;2.28;;
39750;SDS011;37579;51.074;17.004;2023-12-28T07:57:38;4.57;;;2.28;;
39750;SDS011;37579;51.074;17.004;2023-12-28T08:00:04;2.83;;;2.00;;
39750;SDS011;37579;51.074;17.004;2023-12-28T08:02:30;3.40;;;2.22;;
39750;SDS011;37579;51.074;17.004;2023-12-28T08:04:56;4.60;;;2.60;;
39750;SDS011;37579;51.074;17.004;2023-12-28T08:07:22;5.22;;;2.50;;
39750;SDS011;37579;51.074;17.004;2023-12-28T08:09:48;4.00;;;2.47;;
39750;SDS011;37579;51.074;17.004;2023-12-28T08:12:13;7.07;;;2.40;;
39750;SDS011;37579;51.074;17.004;2023-12-28T08:14:39;5.05;;;2.22;;
39750;SDS011;37579;51.074;17.004;2023-12-28T08:17:05;6.50;;;2.28;;
39750;SDS011;37579;51.074;17.004;2023-12-28T08:19:31;2.55;;;1.90;;
39750;SDS011;37579;51.074;17.004;2023-12-28T08:21:56;3.30;;;2.15;;
39750;SDS011;37579;51.074;17.004;2023-12-28T08:24:22;5.40;;;2.63;;
39750;SDS011;37579;51.074;17.004;2023-12-28T08:26:48;4.75;;;2.45;;
39750;SDS011;37579;51.074;17.004;2023-12-28T08:29:13;5.97;;;2.97;;
39750;SDS011;37579;51.074;17.004;2023-12-28T08:31:39;3.95;;;2.17;;
39750;SDS011;37579;51.074;17.004;2023-12-28T08:34:06;5.28;;;2.95;;
39750;SDS011;37579;51.074;17.004;2023-12-28T08:36:31;5.63;;;2.50;;
39750;SDS011;37579;51.074;17.004;2023-12-28T08:38:57;6.72;;;2.78;;
39750;SDS011;37579;51.074;17.004;2023-12-28T08:41:23;7.13;;;3.00;;
39750;SDS011;37579;51.074;17.004;2023-12-28T08:43:49;9.13;;;2.78;;
39750;SDS011;37579;51.074;17.004;2023-12-28T08:46:17;5.75;;;2.35;;
39750;SDS011;37579;51.074;17.004;2023-12-28T08:48:43;4.10;;;2.05;;
39750;SDS011;37579;51.074;17.004;2023-12-28T08:51:12;8.15;;;2.47;;
39750;SDS011;37579;51.074;17.004;2023-12-28T08:53:39;3.90;;;2.38;;
39750;SDS011;37579;51.074;17.004;2023-12-28T08:56:19;5.18;;;2.22;;
39750;SDS011;37579;51.074;17.004;2023-12-28T08:58:46;5.18;;;2.60;;
39750;SDS011;37579;51.074;17.004;2023-12-28T09:01:22;5.55;;;2.60;;
39750;SDS011;37579;51.074;17.004;2023-12-28T09:03:50;4.75;;;2.17;;
39750;SDS011;37579;51.074;17.004;2023-12-28T09:06:17;4.93;;;2.17;;
39750;SDS011;37579;51.074;17.004;2023-12-28T09:08:44;7.40;;;2.72;;
39750;SDS011;37579;51.074;17.004;2023-12-28T09:11:12;6.68;;;2.40;;
39750;SDS011;37579;51.074;17.004;2023-12-28T09:13:39;5.65;;;2.50;;
39750;SDS011;37579;51.074;17.004;2023-12-28T09:16:06;5.72;;;2.40;;
39750;SDS011;37579;51.074;17.004;2023-12-28T09:18:33;5.00;;;2.38;;
39750;SDS011;37579;51.074;17.004;2023-12-28T09:20:59;5.50;;;2.65;;
39750;SDS011;37579;51.074;17.004;2023-12-28T09:23:25;6.22;;;2.47;;
39750;SDS011;37579;51.074;17.004;2023-12-28T09:25:50;3.97;;;1.92;;
39750;SDS011;37579;51.074;17.004;2023-12-28T09:28:16;4.60;;;2.50;;
39750;SDS011;37579;51.074;17.004;2023-12-28T09:30:42;4.93;;;2.00;;
39750;SDS011;37579;51.074;17.004;2023-12-28T09:33:08;3.72;;;2.20;;
39750;SDS011;37579;51.074;17.004;2023-12-28T09:35:33;5.07;;;2.08;;
39750;SDS011;37579;51.074;17.004;2023-12-28T09:38:01;7.40;;;1.92;;
39750;SDS011;37579;51.074;17.004;2023-12-28T09:40:27;5.63;;;2.70;;
39750;SDS011;37579;51.074;17.004;2023-12-28T09:45:37;3.80;;;1.77;;
39750;SDS011;37579;51.074;17.004;2023-12-28T09:48:03;4.22;;;2.30;;
39750;SDS011;37579;51.074;17.004;2023-12-28T09:50:29;4.25;;;2.22;;
39750;SDS011;37579;51.074;17.004;2023-12-28T09:52:55;4.43;;;2.13;;
39750;SDS011;37579;51.074;17.004;2023-12-28T09:55:21;3.42;;;1.92;;
39750;SDS011;37579;51.074;17.004;2023-12-28T09:57:47;2.80;;;1.90;;
39750;SDS011;37579;51.074;17.004;2023-12-28T10:00:14;4.85;;;2.10;;
39750;SDS011;37579;51.074;17.004;2023-12-28T10:02:40;4.57;;;2.10;;
39750;SDS011;37579;51.074;17.004;2023-12-28T10:05:13;3.80;;;2.20;;
39750;SDS011;37579;51.074;17.004;2023-12-28T10:07:40;5.72;;;1.98;;
39750;SDS011;37579;51.074;17.004;2023-12-28T10:10:09;5.13;;;2.22;;
39750;SDS011;37579;51.074;17.004;2023-12-28T10:12:36;3.13;;;1.88;;
39750;SDS011;37579;51.074;17.004;2023-12-28T10:15:03;3.60;;;2.00;;
39750;SDS011;37579;51.074;17.004;2023-12-28T10:17:31;5.20;;;2.00;;
39750;SDS011;37579;51.074;17.004;2023-12-28T10:19:59;4.93;;;2.20;;
39750;SDS011;37579;51.074;17.004;2023-12-28T10:22:30;4.05;;;2.00;;
39750;SDS011;37579;51.074;17.004;2023-12-28T10:24:57;3.42;;;1.90;;
39750;SDS011;37579;51.074;17.004;2023-12-28T10:27:25;4.10;;;1.92;;
39750;SDS011;37579;51.074;17.004;2023-12-28T10:29:54;3.97;;;1.90;;
39750;SDS011;37579;51.074;17.004;2023-12-28T10:32:21;2.70;;;1.70;;
39750;SDS011;37579;51.074;17.004;2023-12-28T10:34:49;5.05;;;1.92;;
39750;SDS011;37579;51.074;17.004;2023-12-28T10:37:19;5.20;;;1.88;;
39750;SDS011;37579;51.074;17.004;2023-12-28T10:39:47;4.05;;;1.88;;
39750;SDS011;37579;51.074;17.004;2023-12-28T10:42:16;3.90;;;2.30;;
39750;SDS011;37579;51.074;17.004;2023-12-28T10:45:03;4.45;;;2.13;;
39750;SDS011;37579;51.074;17.004;2023-12-28T10:47:32;3.50;;;2.00;;
39750;SDS011;37579;51.074;17.004;2023-12-28T10:50:04;4.18;;;1.90;;
39750;SDS011;37579;51.074;17.004;2023-12-28T10:52:31;2.10;;;1.38;;
39750;SDS011;37579;51.074;17.004;2023-12-28T10:57:53;3.72;;;1.83;;
39750;SDS011;37579;51.074;17.004;2023-12-28T11:00:49;3.22;;;1.80;;
39750;SDS011;37579;51.074;17.004;2023-12-28T11:03:23;2.20;;;1.50;;
39750;SDS011;37579;51.074;17.004;2023-12-28T11:05:53;2.47;;;1.90;;
39750;SDS011;37579;51.074;17.004;2023-12-28T11:08:20;2.90;;;1.73;;
39750;SDS011;37579;51.074;17.004;2023-12-28T11:10:47;2.80;;;1.70;;
39750;SDS011;37579;51.074;17.004;2023-12-28T11:13:15;4.53;;;1.90;;
39750;SDS011;37579;51.074;17.004;2023-12-28T11:15:43;3.17;;;1.60;;
39750;SDS011;37579;51.074;17.004;2023-12-28T11:18:10;3.80;;;2.13;;
39750;SDS011;37579;51.074;17.004;2023-12-28T11:20:36;2.80;;;1.65;;
39750;SDS011;37579;51.074;17.004;2023-12-28T11:23:03;2.05;;;1.42;;
39750;SDS011;37579;51.074;17.004;2023-12-28T11:25:31;2.92;;;1.73;;
39750;SDS011;37579;51.074;17.004;2023-12-28T11:27:58;2.42;;;1.35;;
39750;SDS011;37579;51.074;17.004;2023-12-28T11:30:28;2.85;;;1.80;;
39750;SDS011;37579;51.074;17.004;2023-12-28T11:32:57;2.58;;;1.75;;
39750;SDS011;37579;51.074;17.004;2023-12-28T11:35:23;2.38;;;1.45;;
39750;SDS011;37579;51.074;17.004;2023-12-28T11:37:51;2.13;;;1.50;;
39750;SDS011;37579;51.074;17.004;2023-12-28T11:40:18;2.15;;;1.40;;
39750;SDS011;37579;51.074;17.004;2023-12-28T11:42:51;2.35;;;1.67;;
39750;SDS011;37579;51.074;17.004;2023-12-28T11:45:18;3.97;;;1.52;;
39750;SDS011;37579;51.074;17.004;2023-12-28T11:47:45;2.50;;;1.50;;
39750;SDS011;37579;51.074;17.004;2023-12-28T11:50:11;3.30;;;1.52;;
39750;SDS011;37579;51.074;17.004;2023-12-28T11:52:38;2.63;;;1.48;;
39750;SDS011;37579;51.074;17.004;2023-12-28T11:55:04;2.97;;;1.60;;
39750;SDS011;37579;51.074;17.004;2023-12-28T11:57:30;3.40;;;1.40;;
39750;SDS011;37579;51.074;17.004;2023-12-28T11:59:57;3.55;;;1.75;;
39750;SDS011;37579;51.074;17.004;2023-12-28T12:02:24;2.53;;;1.48;;
39750;SDS011;37579;51.074;17.004;2023-12-28T12:04:50;2.63;;;1.30;;
39750;SDS011;37579;51.074;17.004;2023-12-28T12:07:17;2.20;;;1.40;;
39750;SDS011;37579;51.074;17.004;2023-12-28T12:09:42;2.45;;;1.55;;
39750;SDS011;37579;51.074;17.004;2023-12-28T12:12:08;2.47;;;1.52;;
39750;SDS011;37579;51.074;17.004;2023-12-28T12:14:34;2.45;;;1.60;;
39750;SDS011;37579;51.074;17.004;2023-12-28T12:17:00;3.30;;;1.38;;
39750;SDS011;37579;51.074;17.004;2023-12-28T12:19:27;2.25;;;1.50;;
39750;SDS011;37579;51.074;17.004;2023-12-28T12:21:53;2.80;;;1.67;;
39750;SDS011;37579;51.074;17.004;2023-12-28T12:24:20;2.05;;;1.35;;
39750;SDS011;37579;51.074;17.004;2023-12-28T12:26:46;1.92;;;1.30;;
39750;SDS011;37579;51.074;17.004;2023-12-28T12:29:13;2.25;;;1.35;;
39750;SDS011;37579;51.074;17.004;2023-12-28T12:31:42;2.70;;;1.58;;
39750;SDS011;37579;51.074;17.004;2023-12-28T12:34:14;2.60;;;1.67;;
39750;SDS011;37579;51.074;17.004;2023-12-28T12:36:41;1.92;;;1.27;;
39750;SDS011;37579;51.074;17.004;2023-12-28T12:39:09;2.33;;;1.48;;
39750;SDS011;37579;51.074;17.004;2023-12-28T12:41:36;2.15;;;1.50;;
39750;SDS011;37579;51.074;17.004;2023-12-28T12:44:03;1.95;;;1.30;;
39750;SDS011;37579;51.074;17.004;2023-12-28T12:46:30;2.15;;;1.33;;
39750;SDS011;37579;51.074;17.004;2023-12-28T12:48:59;1.70;;;1.40;;
39750;SDS011;37579;51.074;17.004;2023-12-28T12:51:27;2.60;;;1.50;;
39750;SDS011;37579;51.074;17.004;2023-12-28T12:53:57;2.22;;;1.25;;
39750;SDS011;37579;51.074;17.004;2023-12-28T12:56:25;2.88;;;1.00;;
39750;SDS011;37579;51.074;17.004;2023-12-28T12:58:54;3.15;;;1.42;;
39750;SDS011;37579;51.074;17.004;2023-12-28T13:01:21;2.00;;;1.30;;
39750;SDS011;37579;51.074;17.004;2023-12-28T13:03:47;1.83;;;1.30;;
39750;SDS011;37579;51.074;17.004;2023-12-28T13:06:14;1.85;;;1.25;;
39750;SDS011;37579;51.074;17.004;2023-12-28T13:08:40;2.00;;;1.40;;
39750;SDS011;37579;51.074;17.004;2023-12-28T13:11:06;1.40;;;1.10;;
39750;SDS011;37579;51.074;17.004;2023-12-28T13:13:32;1.35;;;1.00;;
39750;SDS011;37579;51.074;17.004;2023-12-28T13:15:58;1.80;;;1.20;;
39750;SDS011;37579;51.074;17.004;2023-12-28T13:18:24;2.67;;;1.40;;
39750;SDS011;37579;51.074;17.004;2023-12-28T13:20:50;1.92;;;1.40;;
39750;SDS011;37579;51.074;17.004;2023-12-28T13:23:15;1.90;;;1.30;;
39750;SDS011;37579;51.074;17.004;2023-12-28T13:25:41;3.30;;;1.20;;
39750;SDS011;37579;51.074;17.004;2023-12-28T13:28:08;1.77;;;1.23;;
39750;SDS011;37579;51.074;17.004;2023-12-28T13:30:34;1.98;;;1.23;;
39750;SDS011;37579;51.074;17.004;2023-12-28T13:33:02;2.47;;;1.17;;
39750;SDS011;37579;51.074;17.004;2023-12-28T13:35:28;2.40;;;1.30;;
39750;SDS011;37579;51.074;17.004;2023-12-28T13:37:54;1.85;;;1.10;;
39750;SDS011;37579;51.074;17.004;2023-12-28T13:40:20;2.28;;;1.13;;
39750;SDS011;37579;51.074;17.004;2023-12-28T13:42:46;1.60;;;1.10;;
39750;SDS011;37579;51.074;17.004;2023-12-28T13:45:12;2.20;;;1.25;;
39750;SDS011;37579;51.074;17.004;2023-12-28T13:47:37;3.00;;;1.20;;
39750;SDS011;37579;51.074;17.004;2023-12-28T13:50:03;2.72;;;1.02;;
39750;SDS011;37579;51.074;17.004;2023-12-28T13:52:31;2.20;;;1.17;;
39750;SDS011;37579;51.074;17.004;2023-12-28T13:54:57;2.65;;;1.40;;
39750;SDS011;37579;51.074;17.004;2023-12-28T13:57:23;1.83;;;1.10;;
39750;SDS011;37579;51.074;17.004;2023-12-28T13:59:49;1.92;;;1.20;;
39750;SDS011;37579;51.074;17.004;2023-12-28T14:02:14;2.70;;;1.33;;
39750;SDS011;37579;51.074;17.004;2023-12-28T14:04:40;2.10;;;0.90;;
39750;SDS011;37579;51.074;17.004;2023-12-28T14:07:06;2.33;;;1.10;;
39750;SDS011;37579;51.074;17.004;2023-12-28T14:09:32;1.67;;;0.90;;
39750;SDS011;37579;51.074;17.004;2023-12-28T14:11:58;2.28;;;1.00;;
39750;SDS011;37579;51.074;17.004;2023-12-28T14:14:24;2.67;;;1.25;;
39750;SDS011;37579;51.074;17.004;2023-12-28T14:16:50;2.05;;;1.30;;
39750;SDS011;37579;51.074;17.004;2023-12-28T14:19:15;2.03;;;1.13;;
39750;SDS011;37579;51.074;17.004;2023-12-28T14:21:41;1.50;;;1.02;;
39750;SDS011;37579;51.074;17.004;2023-12-28T14:24:08;2.72;;;1.38;;
39750;SDS011;37579;51.074;17.004;2023-12-28T14:26:34;1.83;;;1.00;;
39750;SDS011;37579;51.074;17.004;2023-12-28T14:29:09;2.08;;;1.20;;
39750;SDS011;37579;51.074;17.004;2023-12-28T14:31:36;1.50;;;1.08;;
39750;SDS011;37579;51.074;17.004;2023-12-28T14:34:02;1.55;;;1.20;;
39750;SDS011;37579;51.074;17.004;2023-12-28T14:36:32;1.55;;;1.05;;
39750;SDS011;37579;51.074;17.004;2023-12-28T14:38:59;1.60;;;1.27;;
39750;SDS011;37579;51.074;17.004;2023-12-28T14:41:26;1.95;;;1.20;;